La Tijera, Texas
Current Conditions -  °F | °C
As of 4:35 PM on Tuesday 21 Oct 2014 (Local Time) from KT65 Reporting Station
Light Rain Light Rain  
Wind Chill: 73°   Ceiling: 5000
Heat Index: 73°   Visibility: 10mi
Dew Point: 69°   Wind: 5mph
Humidity: 88%   Direction: 70°ENE
Pressure: 29.91"   Gusts: NA
Location:  26.1405°N, 98.071°W
Report Text: KT65 212135Z AUTO 07004KT 10SM -RA SCT034 BKN050 OVC100 23/20 A2991 RMK AO2 P0016 T02250204
Loading
Personal Weather Stations






























Interactive Weather Map
Tropical Storm Tracking
New forecast layout! Learn more

10-Day Weather Forecast

Advertisements
Track Severe Weather on mobile